Time;durP1;ratioP1;P1;durP2;ratioP2;P2;SDS_P1;SDS_P2;PMS_P1;PMS_P2;Temp;Humidity;BMP_temperature;BMP_pressure;BME280_temperature;BME280_humidity;BME280_pressure;Samples;Min_cycle;Max_cycle;Signal;HPM_P1;HPM_P2
2022/02/09 00:02:20;;;;;;;;;;;0.10;71.00;;;;;;6161393;23;19916;-77
2022/02/09 00:07:42;;;;;;;;;;;0.10;70.60;;;;;;6184322;23;20249;-76
2022/02/09 00:10:09;;;;;;;;;;;0.10;71.90;;;;;;6180688;23;20383;-77
2022/02/09 00:18:24;;;;;;;;;;;0.10;71.00;;;;;;6103801;23;19923;-77
2022/02/09 00:24:00;;;;;;;;;;;0.10;71.00;;;;;;6185012;23;19920;-77
2022/02/09 01:57:13;;;;;;;;;;;-0.70;72.50;;;;;;6186565;23;19916;-75
2022/02/09 01:59:42;;;;;;;;;;;-0.70;72.80;;;;;;6186349;23;19927;-76
2022/02/09 02:02:09;;;;;;;;;;;-0.80;72.80;;;;;;6159388;23;20329;-77
2022/02/09 02:04:37;;;;;;;;;;;-0.80;73.60;;;;;;6161672;23;19923;-77
2022/02/09 02:07:10;;;;;;;;;;;-0.90;73.50;;;;;;6185464;23;19920;-75
2022/02/09 02:09:38;;;;;;;;;;;-0.80;74.20;;;;;;6157809;23;20340;-76
2022/02/09 02:12:16;;;;;;;;;;;-0.90;73.70;;;;;;6184970;23;19924;-77
2022/02/09 02:14:49;;;;;;;;;;;-0.90;73.60;;;;;;6158683;23;19982;-77
2022/02/09 02:17:27;;;;;;;;;;;-0.90;73.90;;;;;;6186586;23;20018;-76
2022/02/09 02:20:00;;;;;;;;;;;-0.90;74.00;;;;;;6186037;23;19920;-77
2022/02/09 02:23:07;;;;;;;;;;;-0.90;73.40;;;;;;6159578;23;19947;-75
2022/02/09 02:28:14;;;;;;;;;;;-1.00;74.40;;;;;;6184336;23;19917;-77
2022/02/09 02:57:22;;;;;;;;;;;-1.20;73.00;;;;;;6184236;23;20361;-75
2022/02/09 03:13:31;;;;;;;;;;;-1.40;73.80;;;;;;6185247;23;19916;-75
2022/02/09 03:16:03;;;;;;;;;;;-1.40;74.10;;;;;;6183523;23;20337;-75
2022/02/09 03:21:41;;;;;;;;;;;-1.50;74.70;;;;;;6184412;23;19916;-76
2022/02/09 03:24:15;;;;;;;;;;;-1.50;74.40;;;;;;6181541;23;19916;-77
2022/02/09 03:43:22;;;;;;;;;;;-1.60;75.40;;;;;;6185315;23;19916;-77
2022/02/09 03:59:13;;;;;;;;;;;-1.60;74.70;;;;;;6183722;23;19920;-77
2022/02/09 04:01:42;;;;;;;;;;;-1.50;74.40;;;;;;6157012;23;20383;-77
2022/02/09 04:04:09;;;;;;;;;;;-1.60;74.10;;;;;;6186475;23;19943;-77
2022/02/09 04:06:37;;;;;;;;;;;-1.60;74.00;;;;;;6157774;23;20337;-77
2022/02/09 04:09:08;;;;;;;;;;;-1.70;74.30;;;;;;6182740;23;20517;-76
2022/02/09 04:11:43;;;;;;;;;;;-1.80;74.60;;;;;;6183378;23;19927;-77
2022/02/09 04:14:39;;;;;;;;;;;-1.90;74.30;;;;;;6183647;23;19920;-75
2022/02/09 04:19:38;;;;;;;;;;;-1.90;75.60;;;;;;6183579;23;19916;-77
2022/02/09 04:39:00;;;;;;;;;;;-1.90;74.30;;;;;;6184024;23;21047;-76
2022/02/09 04:42:00;;;;;;;;;;;-2.00;74.60;;;;;;6156694;23;19923;-78
2022/02/09 04:44:30;;;;;;;;;;;-1.90;75.90;;;;;;6183648;23;19916;-75
2022/02/09 04:49:43;;;;;;;;;;;-1.90;74.90;;;;;;6183892;23;19916;-77
2022/02/09 04:52:25;;;;;;;;;;;-1.90;76.00;;;;;;6185219;23;20295;-76
2022/02/09 04:57:51;;;;;;;;;;;-1.90;76.30;;;;;;6182720;23;19966;-75
2022/02/09 05:00:37;;;;;;;;;;;-1.90;76.50;;;;;;6177683;23;20334;-77
2022/02/09 05:25:26;;;;;;;;;;;-2.20;75.40;;;;;;6153209;23;19917;-78
2022/02/09 05:27:59;;;;;;;;;;;-2.20;75.10;;;;;;6154162;23;20306;-78
2022/02/09 05:30:30;;;;;;;;;;;-2.30;74.70;;;;;;6155194;23;19916;-78
2022/02/09 05:32:57;;;;;;;;;;;-2.20;74.30;;;;;;6154240;23;19921;-78
2022/02/09 05:35:25;;;;;;;;;;;-2.30;75.00;;;;;;6153838;23;19920;-77
2022/02/09 05:37:53;;;;;;;;;;;-2.30;74.90;;;;;;6153494;23;19927;-75
2022/02/09 05:40:20;;;;;;;;;;;-2.30;75.20;;;;;;6156776;23;19920;-76
2022/02/09 05:42:47;;;;;;;;;;;-2.30;76.40;;;;;;6155047;23;20245;-75
2022/02/09 05:45:15;;;;;;;;;;;-2.30;75.70;;;;;;6155327;23;20292;-78
2022/02/09 05:48:22;;;;;;;;;;;-2.30;75.40;;;;;;6153443;23;20392;-75
2022/02/09 05:50:47;;;;;;;;;;;-2.30;75.00;;;;;;6154990;23;19916;-78
2022/02/09 05:53:19;;;;;;;;;;;-2.30;75.60;;;;;;6156683;23;20392;-78
2022/02/09 05:56:07;;;;;;;;;;;-2.30;75.30;;;;;;6153670;23;19975;-75
2022/02/09 05:58:37;;;;;;;;;;;-2.30;75.30;;;;;;6153379;23;19916;-77
2022/02/09 06:01:05;;;;;;;;;;;-2.30;75.10;;;;;;6155798;23;20349;-77
2022/02/09 06:03:32;;;;;;;;;;;-2.30;75.40;;;;;;6154590;23;20397;-76
2022/02/09 06:05:59;;;;;;;;;;;-2.30;75.70;;;;;;6155971;23;20342;-76
2022/02/09 06:08:25;;;;;;;;;;;-2.30;76.00;;;;;;6156247;23;19950;-77
2022/02/09 06:11:08;;;;;;;;;;;-2.30;76.20;;;;;;6155039;23;19959;-76
2022/02/09 06:21:35;;;;;;;;;;;-2.40;78.30;;;;;;6154793;23;20359;-77
2022/02/09 06:24:01;;;;;;;;;;;-2.40;77.90;;;;;;6154054;23;19972;-76
2022/02/09 06:26:28;;;;;;;;;;;-2.30;77.50;;;;;;6153565;23;19947;-76
2022/02/09 06:28:55;;;;;;;;;;;-2.30;76.70;;;;;;6153558;23;19999;-75
2022/02/09 06:31:21;;;;;;;;;;;-2.30;76.60;;;;;;6153650;23;19971;-77
2022/02/09 06:33:49;;;;;;;;;;;-2.30;77.20;;;;;;6154330;23;19916;-77
2022/02/09 06:36:21;;;;;;;;;;;-2.40;76.00;;;;;;6154305;23;19920;-77
2022/02/09 06:38:48;;;;;;;;;;;-2.40;77.20;;;;;;6151972;23;19971;-75
2022/02/09 06:41:15;;;;;;;;;;;-2.40;78.20;;;;;;6154372;23;20298;-75
2022/02/09 06:43:41;;;;;;;;;;;-2.40;77.90;;;;;;6152773;23;20333;-75
2022/02/09 06:46:09;;;;;;;;;;;-2.40;78.20;;;;;;6153364;23;19916;-76
2022/02/09 06:48:36;;;;;;;;;;;-2.40;80.50;;;;;;6151327;23;20428;-77
2022/02/09 06:51:09;;;;;;;;;;;-2.40;80.10;;;;;;6153234;23;20337;-77
2022/02/09 06:53:44;;;;;;;;;;;-2.40;79.10;;;;;;6152916;23;19916;-77
2022/02/09 06:56:17;;;;;;;;;;;-2.40;78.70;;;;;;6155022;23;19924;-75
2022/02/09 06:58:57;;;;;;;;;;;-2.40;78.40;;;;;;6153980;23;19916;-77
2022/02/09 07:01:23;;;;;;;;;;;-2.40;79.20;;;;;;6154824;23;20397;-76
2022/02/09 07:03:51;;;;;;;;;;;-2.40;80.10;;;;;;6151376;23;20361;-77
2022/02/09 07:06:18;;;;;;;;;;;-2.40;79.50;;;;;;6155170;23;19916;-75
2022/02/09 07:08:45;;;;;;;;;;;-2.40;81.10;;;;;;6153907;23;19916;-77
2022/02/09 07:11:11;;;;;;;;;;;-2.40;81.30;;;;;;6152617;23;20405;-77
2022/02/09 07:13:38;;;;;;;;;;;-2.40;82.10;;;;;;6153677;23;20349;-77
2022/02/09 07:16:05;;;;;;;;;;;-2.30;83.90;;;;;;6153700;23;19921;-77
2022/02/09 07:18:32;;;;;;;;;;;-2.30;83.10;;;;;;6153015;23;19916;-77
2022/02/09 07:21:05;;;;;;;;;;;-2.30;83.70;;;;;;6152300;23;19916;-76
2022/02/09 07:23:48;;;;;;;;;;;-2.30;83.00;;;;;;6153154;23;20352;-77
2022/02/09 07:26:25;;;;;;;;;;;-2.20;82.60;;;;;;6154539;23;19924;-75
2022/02/09 07:28:52;;;;;;;;;;;-2.20;82.30;;;;;;6153168;23;19999;-75
2022/02/09 07:31:20;;;;;;;;;;;-2.20;82.40;;;;;;6153288;23;19916;-76
2022/02/09 07:33:47;;;;;;;;;;;-2.10;82.60;;;;;;6152380;23;20278;-76
2022/02/09 07:36:14;;;;;;;;;;;-2.20;81.80;;;;;;6152283;23;19916;-77
2022/02/09 07:38:44;;;;;;;;;;;-2.10;82.30;;;;;;6152934;23;19917;-76
2022/02/09 07:41:11;;;;;;;;;;;-2.00;84.50;;;;;;6153278;23;19923;-77
2022/02/09 07:43:49;;;;;;;;;;;-1.90;84.80;;;;;;6154013;23;19967;-77
2022/02/09 07:54:00;;;;;;;;;;;-0.70;82.60;;;;;;6154533;23;19967;-77
2022/02/09 07:56:31;;;;;;;;;;;-0.40;80.90;;;;;;6153675;23;19979;-75
2022/02/09 07:58:58;;;;;;;;;;;0.00;79.90;;;;;;6157089;23;19923;-77
2022/02/09 08:01:25;;;;;;;;;;;0.40;78.30;;;;;;6157472;23;20364;-75
2022/02/09 08:03:53;;;;;;;;;;;0.80;76.70;;;;;;6183164;23;19920;-77
2022/02/09 08:06:24;;;;;;;;;;;1.20;75.50;;;;;;6156796;23;19932;-75
2022/02/09 08:08:57;;;;;;;;;;;1.50;74.20;;;;;;6157076;23;19924;-76
2022/02/09 08:11:30;;;;;;;;;;;1.90;74.00;;;;;;6181761;23;20352;-76
2022/02/09 08:30:08;;;;;;;;;;;4.00;65.70;;;;;;6183508;23;19916;-77
2022/02/09 08:32:42;;;;;;;;;;;4.20;65.50;;;;;;6181639;23;20404;-76
2022/02/09 08:35:08;;;;;;;;;;;4.40;65.30;;;;;;6182901;23;19916;-77
2022/02/09 08:37:35;;;;;;;;;;;4.50;64.20;;;;;;6182124;23;19920;-77
2022/02/09 08:40:03;;;;;;;;;;;4.70;63.40;;;;;;6182068;23;19916;-76
2022/02/09 08:42:32;;;;;;;;;;;4.80;62.30;;;;;;6156287;23;20345;-77
2022/02/09 08:44:59;;;;;;;;;;;4.90;62.70;;;;;;6156607;23;20333;-76
2022/02/09 08:47:47;;;;;;;;;;;5.00;61.50;;;;;;6160732;23;19955;-76
2022/02/09 08:50:15;;;;;;;;;;;5.10;61.30;;;;;;6182979;23;19967;-75
2022/02/09 08:52:42;;;;;;;;;;;5.30;61.50;;;;;;6182908;23;19967;-77
2022/02/09 08:55:09;;;;;;;;;;;5.40;60.60;;;;;;6183336;23;19920;-75
2022/02/09 08:57:36;;;;;;;;;;;5.50;60.50;;;;;;6157652;23;19920;-77
2022/02/09 09:00:14;;;;;;;;;;;5.60;59.40;;;;;;6157559;23;19916;-76
2022/02/09 09:02:46;;;;;;;;;;;5.70;59.70;;;;;;6157090;23;20305;-76
2022/02/09 09:05:16;;;;;;;;;;;5.90;59.00;;;;;;6185230;23;20265;-76
2022/02/09 09:07:49;;;;;;;;;;;6.00;58.80;;;;;;6184747;23;19916;-77
2022/02/09 09:10:25;;;;;;;;;;;6.20;58.50;;;;;;6185136;23;19943;-76
2022/02/09 10:14:11;;;;;;;;;;;9.50;47.60;;;;;;6169800;23;19920;-76
2022/02/09 10:31:23;;;;;;;;;;;10.80;43.50;;;;;;6185365;23;19936;-76
2022/02/09 10:33:50;;;;;;;;;;;11.00;43.40;;;;;;6183640;23;19916;-77
2022/02/09 10:36:19;;;;;;;;;;;11.10;41.70;;;;;;6145606;23;19920;-76
2022/02/09 10:39:01;;;;;;;;;;;11.20;41.00;;;;;;6156020;23;19917;-76
2022/02/09 10:41:36;;;;;;;;;;;11.30;41.70;;;;;;6184274;23;20222;-76
2022/02/09 10:44:07;;;;;;;;;;;11.50;41.60;;;;;;6158460;23;19950;-77
2022/02/09 10:46:57;;;;;;;;;;;11.50;40.20;;;;;;6144877;23;19939;-75
2022/02/09 10:49:30;;;;;;;;;;;11.70;40.80;;;;;;6158808;23;19924;-76
2022/02/09 10:54:26;;;;;;;;;;;11.90;42.80;;;;;;6184012;23;20020;-76
2022/02/09 10:56:57;;;;;;;;;;;11.90;42.90;;;;;;6183429;23;19927;-77
2022/02/09 10:59:30;;;;;;;;;;;12.00;43.60;;;;;;6183735;23;20365;-76
2022/02/09 11:01:58;;;;;;;;;;;12.10;44.60;;;;;;6180894;23;20289;-78
2022/02/09 11:04:24;;;;;;;;;;;12.20;44.60;;;;;;6158402;23;19920;-76
2022/02/09 11:06:51;;;;;;;;;;;12.40;45.30;;;;;;6172055;23;19978;-76
2022/02/09 11:09:27;;;;;;;;;;;12.50;45.10;;;;;;6150958;23;20234;-76
2022/02/09 11:11:55;;;;;;;;;;;12.60;46.10;;;;;;6188859;23;20245;-77
2022/02/09 11:14:24;;;;;;;;;;;12.60;44.30;;;;;;6183666;23;20304;-77
2022/02/09 11:16:53;;;;;;;;;;;12.70;45.20;;;;;;6156475;23;19920;-77
2022/02/09 11:19:37;;;;;;;7.57;4.50;;;12.70;46.20;;;;;;6186369;23;19939;-77
2022/02/09 11:22:15;;;;;;;16.45;6.03;;;12.80;47.40;;;;;;6169088;23;20080;-77
2022/02/09 11:24:47;;;;;;;11.00;6.75;;;12.90;46.90;;;;;;6159135;23;20056;-78
2022/02/09 11:27:31;;;;;;;;;;;13.00;46.30;;;;;;6157922;23;20025;-79
2022/02/09 11:30:17;;;;;;;;;;;13.10;45.20;;;;;;6159742;23;19943;-77
2022/02/09 11:36:20;;;;;;;11.45;4.97;;;13.30;44.40;;;;;;6190827;23;20395;-77
2022/02/09 11:38:52;;;;;;;7.47;6.30;;;13.50;44.70;;;;;;6189054;23;20111;-77
2022/02/09 11:41:24;;;;;;;9.20;6.60;;;13.70;43.60;;;;;;6170947;23;20379;-76
2022/02/09 11:44:05;;;;;;;12.15;8.13;;;13.80;43.50;;;;;;6155258;23;20906;-77
2022/02/09 11:49:39;;;;;;;10.57;8.23;;;14.00;43.20;;;;;;6177543;23;20256;-77
2022/02/09 11:52:22;;;;;;;27.50;17.45;;;14.00;41.00;;;;;;6191384;23;20017;-77
2022/02/09 11:58:41;;;;;;;12.07;8.43;;;14.30;40.30;;;;;;6182319;23;20404;-77
2022/02/09 12:12:01;;;;;;;;;;;14.80;38.30;;;;;;6153163;23;19920;-77
2022/02/09 12:20:48;;;;;;;;;;;14.80;37.50;;;;;;6159112;23;19959;-78
2022/02/09 12:23:12;;;;;;;;;;;14.80;38.20;;;;;;6185543;23;20040;-78
2022/02/09 12:25:40;;;;;;;;;;;15.00;37.70;;;;;;6159986;23;20333;-77
2022/02/09 12:28:07;;;;;;;;;;;15.00;37.20;;;;;;6182284;23;19924;-78
2022/02/09 12:30:34;;;;;;;;;;;15.10;37.80;;;;;;6149271;23;19916;-76
2022/02/09 12:33:01;;;;;;;;;;;15.10;38.00;;;;;;6157014;23;19923;-77
2022/02/09 12:35:28;;;;;;;;;;;15.10;36.70;;;;;;6159472;23;19916;-78
2022/02/09 12:37:55;;;;;;;;;;;14.90;36.60;;;;;;6179697;23;19943;-78
2022/02/09 12:40:23;;;;;;;;;;;14.90;37.30;;;;;;6182214;23;19920;-76
2022/02/09 12:42:53;;;;;;;;;;;15.00;37.80;;;;;;6187139;23;19916;-77
2022/02/09 12:45:21;;;;;;;;;;;15.20;38.40;;;;;;6186353;23;19924;-76
2022/02/09 12:47:50;;;;;;;;;;;15.30;37.20;;;;;;6161231;23;19916;-78
2022/02/09 12:50:33;;;;;;;;;;;15.10;36.80;;;;;;6189859;23;19923;-76
2022/02/09 12:53:02;;;;;;;8.32;7.15;;;15.00;38.10;;;;;;6160490;23;19920;-78
2022/02/09 12:55:32;;;;;;;10.23;8.52;;;15.20;37.30;;;;;;6184634;23;20376;-78
2022/02/09 12:58:05;;;;;;;10.60;7.25;;;15.30;37.20;;;;;;6171310;23;20048;-77
2022/02/09 13:00:40;;;;;;;;;;;15.50;37.70;;;;;;6185672;23;20417;-77
2022/02/09 13:03:09;;;;;;;;;;;15.80;37.30;;;;;;6190800;23;19975;-77
2022/02/09 13:05:45;;;;;;;;;;;16.00;36.40;;;;;;6191516;23;20257;-78
2022/02/09 13:08:17;;;;;;;;;;;16.20;36.00;;;;;;6183463;23;19916;-76
2022/02/09 13:10:44;;;;;;;;;;;16.20;37.30;;;;;;6190743;23;20362;-78
2022/02/09 13:13:20;;;;;;;;;;;16.20;36.00;;;;;;6186203;23;19996;-76
2022/02/09 13:16:11;;;;;;;;;;;16.10;35.40;;;;;;6189741;23;19916;-77
2022/02/09 13:18:54;;;;;;;;;;;16.00;35.50;;;;;;6198091;23;19970;-77
2022/02/09 14:03:06;;;;;;;;;;;16.30;35.40;;;;;;6187675;23;20230;-78
2022/02/09 14:13:19;;;;;;;;;;;16.10;36.20;;;;;;6190737;23;19940;-76
2022/02/09 14:16:11;;;;;;;;;;;16.20;36.50;;;;;;6163561;23;19920;-77
2022/02/09 14:56:57;;;;;;;12.65;11.15;;;15.70;37.30;;;;;;6173923;23;20417;-76
2022/02/09 14:59:47;;;;;;;;;;;15.60;37.50;;;;;;6194691;23;20103;-76
2022/02/09 15:02:47;;;;;;;;;;;15.50;37.80;;;;;;6194768;23;19920;-77
2022/02/09 15:07:54;;;;;;;;;;;15.30;38.10;;;;;;6200561;23;20398;-77
2022/02/09 15:13:14;;;;;;;;;;;15.30;38.50;;;;;;6188820;23;19916;-77
2022/02/09 15:24:05;;;;;;;13.45;10.98;;;15.00;38.10;;;;;;6160740;23;19916;-76
2022/02/09 15:26:34;;;;;;;;;;;14.90;38.60;;;;;;6194451;23;20021;-76
2022/02/09 15:29:01;;;;;;;;;;;14.80;38.50;;;;;;6187170;23;19924;-77
2022/02/09 15:34:17;;;;;;;;;;;14.80;38.60;;;;;;6189571;23;19924;-77
2022/02/09 15:37:02;;;;;;;;;;;14.80;38.80;;;;;;6169463;23;19966;-77
2022/02/09 15:39:36;;;;;;;;;;;14.80;38.70;;;;;;6162901;23;19939;-76
2022/02/09 16:36:43;;;;;;;;;;;13.20;41.50;;;;;;6130902;23;19916;-76
2022/02/09 16:46:51;;;;;;;;;;;12.30;43.70;;;;;;6122739;23;19917;-78
2022/02/09 16:49:32;;;;;;;;;;;12.10;44.10;;;;;;6127009;23;19917;-76
2022/02/09 16:52:13;;;;;;;;;;;11.80;44.90;;;;;;6121881;23;19921;-76
2022/02/09 17:21:21;;;;;;;;;;;9.80;50.30;;;;;;6187629;23;19920;-75
2022/02/09 17:23:49;;;;;;;;;;;9.70;51.80;;;;;;6186215;23;19917;-75
2022/02/09 17:26:16;;;;;;;;;;;9.60;51.40;;;;;;6184627;23;19928;-78
2022/02/09 17:28:44;;;;;;;;;;;9.40;51.70;;;;;;6158514;23;20230;-78
2022/02/09 17:34:05;;;;;;;;;;;9.20;51.90;;;;;;6191796;23;19967;-76
2022/02/09 17:39:21;;;;;;;;;;;9.00;53.00;;;;;;6195669;23;19916;-76
2022/02/09 17:55:55;;;;;;;;;;;8.30;54.50;;;;;;6193320;23;19916;-77
2022/02/09 17:58:28;;;;;;;;;;;8.20;54.30;;;;;;6161261;23;20261;-78
2022/02/09 18:00:55;;;;;;;;;;;8.10;54.60;;;;;;6168794;23;19916;-77
2022/02/09 18:03:23;;;;;;;;;;;7.90;55.00;;;;;;6192292;23;20704;-76
2022/02/09 18:05:52;;;;;;;;;;;7.80;55.10;;;;;;6165864;23;19916;-77
2022/02/09 18:08:25;;;;;;;;;;;7.70;55.20;;;;;;6162963;23;19916;-77
2022/02/09 18:30:35;;;;;;;;;;;6.90;57.50;;;;;;6192871;23;19916;-78
2022/02/09 18:43:45;;;;;;;;;;;6.50;59.00;;;;;;6199294;23;19948;-76
2022/02/09 19:15:16;;;;;;;;;;;5.40;60.80;;;;;;6189287;23;19947;-74
2022/02/09 19:20:30;;;;;;;;;;;5.30;61.50;;;;;;6188272;23;19923;-78
2022/02/09 19:31:21;;;;;;;;;;;5.00;61.30;;;;;;6190260;23;19907;-78
2022/02/09 19:47:40;;;;;;;;;;;4.60;64.20;;;;;;6190176;23;19986;-76
2022/02/09 19:50:26;;;;;;;;;;;4.50;63.80;;;;;;6166616;23;19919;-77
2022/02/09 19:55:35;;;;;;;;;;;4.40;63.40;;;;;;6186309;23;20292;-77
2022/02/09 19:58:03;;;;;;;;;;;4.40;63.50;;;;;;6188817;23;20965;-76
2022/02/09 20:00:33;;;;;;;;;;;4.30;63.60;;;;;;6157545;23;20018;-74
2022/02/09 20:03:00;;;;;;;;;;;4.20;64.60;;;;;;6188419;23;19940;-75
2022/02/09 20:05:27;;;;;;;;;;;4.20;64.80;;;;;;6185419;23;19927;-76
2022/02/09 20:07:55;;;;;;;;;;;4.20;64.70;;;;;;6185311;23;19970;-75
2022/02/09 20:10:23;;;;;;;;;;;4.10;64.60;;;;;;6186366;23;19916;-76
2022/02/09 20:12:50;;;;;;;;;;;4.10;65.70;;;;;;6159271;23;19916;-76
2022/02/09 20:15:18;;;;;;;;;;;4.00;65.90;;;;;;6185483;23;19923;-75
2022/02/09 20:17:45;;;;;;;;;;;3.90;68.10;;;;;;6162544;23;19916;-75
2022/02/09 20:20:16;;;;;;;;;;;3.90;69.30;;;;;;6185440;23;19924;-77
2022/02/09 20:22:44;;;;;;;;;;;3.90;70.30;;;;;;6156378;23;19982;-77
2022/02/09 20:25:12;;;;;;;;;;;4.00;73.20;;;;;;6184496;23;19982;-77
2022/02/09 20:27:39;;;;;;;;;;;4.10;72.60;;;;;;6185157;23;19916;-77
2022/02/09 20:30:09;;;;;;;;;;;4.30;73.30;;;;;;6186966;23;20012;-74
2022/02/09 20:32:41;;;;;;;;;;;4.50;72.70;;;;;;6192212;23;19927;-75
2022/02/09 20:35:11;;;;;;;;;;;4.50;71.80;;;;;;6184188;23;19973;-75
2022/02/09 20:37:43;;;;;;;;;;;4.50;71.10;;;;;;6184094;23;20407;-77
2022/02/09 20:40:16;;;;;;;;;;;4.60;70.40;;;;;;6159488;23;20230;-77
2022/02/09 20:42:53;;;;;;;;;;;4.50;68.90;;;;;;6161017;23;19916;-75
2022/02/09 20:45:29;;;;;;;;;;;4.50;68.10;;;;;;6187871;23;19979;-76
2022/02/09 20:48:00;;;;;;;;;;;4.30;67.50;;;;;;6158749;23;19920;-76
2022/02/09 20:50:28;;;;;;;;;;;4.20;68.30;;;;;;6157412;23;19971;-78
2022/02/09 20:52:55;;;;;;;;;;;4.10;67.90;;;;;;6162253;23;19948;-75
2022/02/09 20:55:22;;;;;;;;;;;4.00;68.10;;;;;;6158906;23;20675;-75
2022/02/09 20:57:50;;;;;;;;;;;4.00;68.00;;;;;;6163249;23;19966;-75
2022/02/09 21:00:36;;;;;;;;;;;4.00;67.70;;;;;;6186054;23;19920;-75
2022/02/09 21:05:56;;;;;;;;;;;3.80;67.50;;;;;;6186865;23;19988;-76
2022/02/09 21:08:34;;;;;;;;;;;3.70;68.10;;;;;;6185716;23;19920;-75
2022/02/09 21:16:20;;;;;;;;;;;3.60;67.60;;;;;;6183161;23;19916;-77
2022/02/09 21:24:21;;;;;;;;;;;3.40;68.40;;;;;;6183328;23;19963;-77
2022/02/09 21:32:47;;;;;;;;;;;3.10;69.00;;;;;;6185238;23;19986;-77
2022/02/09 21:52:26;;;;;;;;;;;2.80;69.80;;;;;;6189415;23;20014;-76
2022/02/09 21:55:10;;;;;;;;;;;2.80;70.40;;;;;;6183060;23;19920;-75
2022/02/09 21:58:18;;;;;;;;;;;2.70;70.30;;;;;;6183828;23;20365;-77
2022/02/09 22:06:23;;;;;;;;;;;2.70;69.90;;;;;;6187803;23;19963;-74
2022/02/09 22:20:09;;;;;;;;;;;2.40;70.20;;;;;;6185045;23;19920;-75
2022/02/09 22:28:09;;;;;;;;;;;2.20;70.00;;;;;;6185364;23;19970;-75
2022/02/09 22:55:00;;;;;;;;;;;1.80;72.00;;;;;;6173559;23;19916;-77
2022/02/09 23:11:55;;;;;;;;;;;1.90;73.60;;;;;;6187266;23;20626;-77
